Time;durP1;ratioP1;P1;durP2;ratioP2;P2;SDS_P1;SDS_P2;PMS_P1;PMS_P2;Temp;Humidity;BMP_temperature;BMP_pressure;BME280_temperature;BME280_humidity;BME280_pressure;Samples;Min_cycle;Max_cycle;Signal;HPM_P1;HPM_P2
2022/11/26 00:01:39;;;;;;;9.85;2.63;;;;;;;;;;6142529;23;20012;-87
2022/11/26 00:04:05;;;;;;;5.43;2.33;;;;;;;;;;6139892;23;20024;-87
2022/11/26 00:06:36;;;;;;;5.22;2.17;;;;;;;;;;6140524;23;20092;-86
2022/11/26 00:09:04;;;;;;;5.53;2.00;;;;;;;;;;6141861;23;20702;-87
2022/11/26 00:11:31;;;;;;;5.13;2.53;;;;;;;;;;6143328;23;20288;-86
2022/11/26 00:13:57;;;;;;;7.13;2.60;;;;;;;;;;6143424;23;20036;-86
2022/11/26 00:16:24;;;;;;;7.25;1.98;;;;;;;;;;6142657;23;20037;-86
2022/11/26 00:18:50;;;;;;;3.75;2.25;;;;;;;;;;6139052;23;20107;-87
2022/11/26 00:21:20;;;;;;;4.53;2.15;;;;;;;;;;6135803;23;20001;-87
2022/11/26 00:23:46;;;;;;;8.95;2.20;;;;;;;;;;6138979;23;20047;-89
2022/11/26 00:26:15;;;;;;;10.10;2.10;;;;;;;;;;6139770;23;20547;-88
2022/11/26 00:28:45;;;;;;;6.47;2.13;;;;;;;;;;6139695;23;20055;-88
2022/11/26 00:31:14;;;;;;;4.43;1.80;;;;;;;;;;6137456;23;20173;-89
2022/11/26 00:33:40;;;;;;;6.65;2.55;;;;;;;;;;6139733;23;20005;-88
2022/11/26 00:36:13;;;;;;;7.35;2.35;;;;;;;;;;6142792;23;20005;-88
2022/11/26 00:38:40;;;;;;;7.03;2.67;;;;;;;;;;6142628;23;20111;-87
2022/11/26 00:41:12;;;;;;;5.63;2.00;;;;;;;;;;6140099;23;20021;-88
2022/11/26 00:43:38;;;;;;;9.68;1.90;;;;;;;;;;6142418;23;20001;-88
2022/11/26 00:46:05;;;;;;;5.90;2.88;;;;;;;;;;6142163;23;20096;-88
2022/11/26 00:48:31;;;;;;;7.57;2.50;;;;;;;;;;6141172;23;20022;-88
2022/11/26 00:50:57;;;;;;;7.35;2.33;;;;;;;;;;6142833;23;20455;-89
2022/11/26 00:53:25;;;;;;;10.27;2.60;;;;;;;;;;6141912;23;20056;-89
2022/11/26 00:55:51;;;;;;;6.30;2.60;;;;;;;;;;6142742;23;20023;-87
2022/11/26 00:58:22;;;;;;;7.95;2.92;;;;;;;;;;6137026;23;20345;-88
2022/11/26 01:00:48;;;;;;;6.55;2.55;;;;;;;;;;6163312;23;20076;-88
2022/11/26 01:03:15;;;;;;;7.15;2.47;;;;;;;;;;6138213;23;20326;-88
2022/11/26 01:05:41;;;;;;;10.35;2.58;;;;;;;;;;6137956;23;20009;-88
2022/11/26 01:08:23;;;;;;;9.88;2.17;;;;;;;;;;6140670;23;20035;-88
2022/11/26 01:10:49;;;;;;;;;;;;;;;;;;6169191;23;20021;-88
2022/11/26 01:13:15;;;;;;;6.90;2.67;;;;;;;;;;6139998;23;19982;-88
2022/11/26 01:15:41;;;;;;;6.47;2.47;;;;;;;;;;6142305;23;20058;-88
2022/11/26 01:18:15;;;;;;;9.02;2.78;;;;;;;;;;6142862;23;20008;-88
2022/11/26 01:20:41;;;;;;;8.52;2.70;;;;;;;;;;6141706;23;20014;-86
2022/11/26 01:23:12;;;;;;;5.93;2.70;;;;;;;;;;6145084;23;20397;-87
2022/11/26 01:25:38;;;;;;;8.00;2.72;;;;;;;;;;6143422;23;20005;-88
2022/11/26 01:28:05;;;;;;;4.10;2.60;;;;;;;;;;6145631;23;20036;-88
2022/11/26 01:30:32;;;;;;;7.32;2.50;;;;;;;;;;6144637;23;20024;-88
2022/11/26 01:32:59;;;;;;;7.75;4.05;;;;;;;;;;6147142;23;20088;-87
2022/11/26 01:35:27;;;;;;;5.25;2.22;;;;;;;;;;6145958;23;20667;-88
2022/11/26 01:37:53;;;;;;;14.38;3.00;;;;;;;;;;6145716;23;20004;-88
2022/11/26 01:40:25;;;;;;;10.32;2.22;;;;;;;;;;6146220;23;20001;-88
2022/11/26 01:43:11;;;;;;;5.25;2.45;;;;;;;;;;6147600;23;20005;-87
2022/11/26 01:45:38;;;;;;;3.63;2.22;;;;;;;;;;6146657;23;20044;-88
2022/11/26 01:48:30;;;;;;;6.60;3.05;;;;;;;;;;6169875;23;20074;-88
2022/11/26 01:51:02;;;;;;;4.72;2.08;;;;;;;;;;6170182;23;20370;-88
2022/11/26 01:53:41;;;;;;;6.82;2.80;;;;;;;;;;6177253;23;20035;-90
2022/11/26 01:56:11;;;;;;;5.53;2.30;;;;;;;;;;6169477;23;20489;-87
2022/11/26 01:58:39;;;;;;;4.95;2.50;;;;;;;;;;6170734;23;20100;-88
2022/11/26 02:01:06;;;;;;;5.22;2.60;;;;;;;;;;6170613;23;19996;-88
2022/11/26 02:03:34;;;;;;;7.03;2.20;;;;;;;;;;6169849;23;20405;-89
2022/11/26 02:06:05;;;;;;;7.13;2.72;;;;;;;;;;6168344;23;20293;-88
2022/11/26 02:08:33;;;;;;;8.73;3.45;;;;;;;;;;6169557;23;20344;-88
2022/11/26 02:10:59;;;;;;;7.07;2.15;;;;;;;;;;6170069;23;20016;-88
2022/11/26 02:13:25;;;;;;;5.70;2.20;;;;;;;;;;6167955;23;20288;-88
2022/11/26 02:16:02;;;;;;;4.30;2.20;;;;;;;;;;6170055;23;20066;-87
2022/11/26 02:18:31;;;;;;;9.80;2.20;;;;;;;;;;6170408;23;20333;-88
2022/11/26 02:21:02;;;;;;;5.15;2.25;;;;;;;;;;6170575;23;20009;-88
2022/11/26 02:23:44;;;;;;;8.93;2.30;;;;;;;;;;6169952;23;20008;-88
2022/11/26 02:26:14;;;;;;;6.05;2.28;;;;;;;;;;6169186;23;20359;-89
2022/11/26 02:28:40;;;;;;;5.53;2.20;;;;;;;;;;6167784;23;20009;-88
2022/11/26 02:31:11;;;;;;;4.47;2.83;;;;;;;;;;6167088;23;20078;-88
2022/11/26 02:33:48;;;;;;;4.63;2.45;;;;;;;;;;6168719;23;20004;-88
2022/11/26 02:36:22;;;;;;;6.13;2.38;;;;;;;;;;6169728;23;20083;-87
2022/11/26 02:38:48;;;;;;;6.68;2.72;;;;;;;;;;6169704;23;20185;-88
2022/11/26 02:41:14;;;;;;;5.82;2.65;;;;;;;;;;6167569;23;20059;-88
2022/11/26 02:43:40;;;;;;;16.73;3.15;;;;;;;;;;6167973;23;20435;-87
2022/11/26 02:46:11;;;;;;;4.75;2.55;;;;;;;;;;6169758;23;20256;-88
2022/11/26 02:48:44;;;;;;;8.50;2.40;;;;;;;;;;6163487;23;20261;-89
2022/11/26 02:51:20;;;;;;;5.82;2.50;;;;;;;;;;6164606;23;20087;-88
2022/11/26 02:53:47;;;;;;;6.32;2.40;;;;;;;;;;6164322;23;20009;-88
2022/11/26 02:56:16;;;;;;;4.15;2.50;;;;;;;;;;6161192;23;20001;-88
2022/11/26 02:58:43;;;;;;;8.27;2.88;;;;;;;;;;6163853;23;20043;-88
2022/11/26 03:01:12;;;;;;;10.15;2.20;;;;;;;;;;6163508;23;20438;-88
2022/11/26 03:03:42;;;;;;;5.93;2.35;;;;;;;;;;6163727;23;20005;-88
2022/11/26 03:06:10;;;;;;;5.78;2.00;;;;;;;;;;6163273;23;20096;-88
2022/11/26 03:08:36;;;;;;;5.53;2.10;;;;;;;;;;6162583;23;20012;-89
2022/11/26 03:11:03;;;;;;;5.63;2.15;;;;;;;;;;6164530;23;20020;-89
2022/11/26 03:13:29;;;;;;;6.60;2.25;;;;;;;;;;6164375;23;20518;-88
2022/11/26 03:15:55;;;;;;;6.10;2.08;;;;;;;;;;6163612;23;20005;-88
2022/11/26 03:18:21;;;;;;;7.88;2.60;;;;;;;;;;6164338;23;20201;-88
2022/11/26 03:20:48;;;;;;;5.45;1.83;;;;;;;;;;6162751;23;20048;-88
2022/11/26 03:23:14;;;;;;;5.80;1.95;;;;;;;;;;6164039;23;20096;-88
2022/11/26 03:25:40;;;;;;;5.25;2.30;;;;;;;;;;6163417;23;20067;-88
2022/11/26 03:28:06;;;;;;;6.05;2.38;;;;;;;;;;6164346;23;20001;-88
2022/11/26 03:30:32;;;;;;;4.38;1.77;;;;;;;;;;6158754;23;20404;-88
2022/11/26 03:32:58;;;;;;;9.88;3.22;;;;;;;;;;6164978;23;20005;-89
2022/11/26 03:35:25;;;;;;;8.90;2.95;;;;;;;;;;6163188;23;20111;-88
2022/11/26 03:37:51;;;;;;;10.48;3.20;;;;;;;;;;6164682;23;20126;-89
2022/11/26 03:40:17;;;;;;;8.75;3.10;;;;;;;;;;6164217;23;20012;-88
2022/11/26 03:42:43;;;;;;;7.50;2.67;;;;;;;;;;6162705;23;20011;-88
2022/11/26 03:45:10;;;;;;;6.82;2.50;;;;;;;;;;6163743;23;20012;-89
2022/11/26 03:47:37;;;;;;;5.32;2.22;;;;;;;;;;6169235;23;20013;-87
2022/11/26 03:50:04;;;;;;;5.70;2.13;;;;;;;;;;6168929;23;20079;-88
2022/11/26 03:52:30;;;;;;;6.28;2.17;;;;;;;;;;6168651;23;20483;-87
2022/11/26 03:54:56;;;;;;;3.88;1.65;;;;;;;;;;6166292;23;20406;-87
2022/11/26 03:57:22;;;;;;;4.32;1.15;;;;;;;;;;6169176;23;20099;-87
2022/11/26 03:59:49;;;;;;;1.83;0.85;;;;;;;;;;6168504;23;20074;-87
2022/11/26 04:02:15;;;;;;;2.05;0.70;;;;;;;;;;6169242;23;20499;-89
2022/11/26 04:04:41;;;;;;;2.40;0.85;;;;;;;;;;6168548;23;20095;-88
2022/11/26 04:07:07;;;;;;;4.30;1.17;;;;;;;;;;6169301;23;20000;-88
2022/11/26 04:09:34;;;;;;;3.38;0.95;;;;;;;;;;6166062;23;20016;-89
2022/11/26 04:12:00;;;;;;;1.52;1.00;;;;;;;;;;6169545;23;20005;-88
2022/11/26 04:14:26;;;;;;;3.25;0.80;;;;;;;;;;6168492;23;20040;-88
2022/11/26 04:16:52;;;;;;;1.25;0.95;;;;;;;;;;6169608;23;20355;-88
2022/11/26 04:19:18;;;;;;;1.83;0.95;;;;;;;;;;6169453;23;20095;-88
2022/11/26 04:21:45;;;;;;;1.48;0.88;;;;;;;;;;6167383;23;20386;-88
2022/11/26 04:24:11;;;;;;;2.10;0.90;;;;;;;;;;6168905;23;20077;-88
2022/11/26 04:26:37;;;;;;;1.50;0.70;;;;;;;;;;6168822;23;20088;-88
2022/11/26 04:29:03;;;;;;;2.33;0.80;;;;;;;;;;6167691;23;20511;-88
2022/11/26 04:31:30;;;;;;;2.78;0.77;;;;;;;;;;6165169;23;20016;-88
2022/11/26 04:33:56;;;;;;;2.15;1.00;;;;;;;;;;6168513;23;20032;-88
2022/11/26 04:36:22;;;;;;;3.88;0.90;;;;;;;;;;6169125;23;20009;-89
2022/11/26 04:38:48;;;;;;;2.20;0.90;;;;;;;;;;6169119;23;20526;-89
2022/11/26 04:41:14;;;;;;;2.80;1.20;;;;;;;;;;6167565;23;20005;-88
2022/11/26 04:43:40;;;;;;;3.10;0.90;;;;;;;;;;6168161;23;20008;-88
2022/11/26 04:46:07;;;;;;;1.88;0.80;;;;;;;;;;6169829;23;20012;-89
2022/11/26 04:48:33;;;;;;;3.17;0.90;;;;;;;;;;6169123;23;20024;-90
2022/11/26 04:50:59;;;;;;;2.65;0.95;;;;;;;;;;6169812;23;20017;-89
2022/11/26 04:53:26;;;;;;;1.08;0.68;;;;;;;;;;6167267;23;20480;-88
2022/11/26 04:55:52;;;;;;;2.97;0.90;;;;;;;;;;6169047;23;20062;-89
2022/11/26 04:58:19;;;;;;;4.97;1.30;;;;;;;;;;6169049;23;20023;-88
2022/11/26 05:00:46;;;;;;;0.93;0.50;;;;;;;;;;6169196;23;20015;-89
2022/11/26 05:03:15;;;;;;;3.05;0.98;;;;;;;;;;6168920;23;20015;-88
2022/11/26 05:05:41;;;;;;;1.75;0.70;;;;;;;;;;6167414;23;20020;-89
2022/11/26 05:08:08;;;;;;;4.40;0.73;;;;;;;;;;6170383;23;20016;-88
2022/11/26 05:10:34;;;;;;;1.90;0.70;;;;;;;;;;6170221;23;20545;-88
2022/11/26 05:13:00;;;;;;;3.13;0.70;;;;;;;;;;6169591;23;20343;-89
2022/11/26 05:15:26;;;;;;;3.58;0.90;;;;;;;;;;6170217;23;20014;-88
2022/11/26 05:17:52;;;;;;;2.22;0.63;;;;;;;;;;6168947;23;20017;-88
2022/11/26 05:20:18;;;;;;;2.63;0.75;;;;;;;;;;6170176;23;20483;-88
2022/11/26 05:22:45;;;;;;;1.25;0.63;;;;;;;;;;6169777;23;20016;-88
2022/11/26 05:25:11;;;;;;;4.10;0.80;;;;;;;;;;6169232;23;20447;-87
2022/11/26 05:27:37;;;;;;;2.55;0.80;;;;;;;;;;6171422;23;20336;-86
2022/11/26 05:30:04;;;;;;;6.95;1.00;;;;;;;;;;6169844;23;20089;-87
2022/11/26 05:32:30;;;;;;;5.75;1.10;;;;;;;;;;6167440;23;20015;-86
2022/11/26 05:34:56;;;;;;;4.82;0.90;;;;;;;;;;6169309;23;20493;-86
2022/11/26 05:37:23;;;;;;;6.35;1.45;;;;;;;;;;6169961;23;20253;-85
2022/11/26 05:39:49;;;;;;;1.95;0.50;;;;;;;;;;6171260;23;20642;-86
2022/11/26 05:42:15;;;;;;;4.38;0.77;;;;;;;;;;6169055;23;20382;-88
2022/11/26 05:44:44;;;;;;;3.78;0.40;;;;;;;;;;6169183;23;20000;-87
2022/11/26 05:47:10;;;;;;;2.58;0.63;;;;;;;;;;6168834;23;20174;-87
2022/11/26 05:49:37;;;;;;;2.75;0.60;;;;;;;;;;6169086;23;20107;-88
2022/11/26 05:52:03;;;;;;;4.22;0.50;;;;;;;;;;6168138;23;20090;-90
2022/11/26 05:54:32;;;;;;;1.85;0.50;;;;;;;;;;6169579;23;20482;-90
2022/11/26 05:56:58;;;;;;;2.78;0.90;;;;;;;;;;6168293;23;19996;-88
2022/11/26 05:59:24;;;;;;;0.73;0.40;;;;;;;;;;6168122;23;20004;-89
2022/11/26 06:01:51;;;;;;;3.83;0.80;;;;;;;;;;6168470;23;20012;-88
2022/11/26 06:04:17;;;;;;;5.32;0.90;;;;;;;;;;6191970;23;20502;-88
2022/11/26 06:06:46;;;;;;;3.55;0.90;;;;;;;;;;6166133;23;20051;-86
2022/11/26 06:09:13;;;;;;;2.78;1.02;;;;;;;;;;6166999;23;20091;-87
2022/11/26 06:11:39;;;;;;;2.65;1.00;;;;;;;;;;6166463;23;20147;-87
2022/11/26 06:14:05;;;;;;;3.90;0.70;;;;;;;;;;6169049;23;20657;-87
2022/11/26 06:16:31;;;;;;;3.10;0.77;;;;;;;;;;6166860;23;20009;-89
2022/11/26 06:18:58;;;;;;;4.38;1.08;;;;;;;;;;6168880;23;20015;-87
2022/11/26 06:21:24;;;;;;;4.35;0.93;;;;;;;;;;6170268;23;20051;-87
2022/11/26 06:23:50;;;;;;;6.03;1.17;;;;;;;;;;6170144;23;20005;-87
2022/11/26 06:26:17;;;;;;;1.05;0.70;;;;;;;;;;6193990;23;20004;-87
2022/11/26 06:28:43;;;;;;;4.53;0.98;;;;;;;;;;6169964;23;20310;-87
2022/11/26 06:31:09;;;;;;;2.60;0.85;;;;;;;;;;6165979;23;20012;-87
2022/11/26 06:33:38;;;;;;;4.72;0.90;;;;;;;;;;6170229;23;20005;-88
2022/11/26 06:36:05;;;;;;;2.35;0.80;;;;;;;;;;6167256;23;20091;-88
2022/11/26 06:38:31;;;;;;;3.55;0.93;;;;;;;;;;6169469;23;20091;-89
2022/11/26 06:40:58;;;;;;;2.85;0.90;;;;;;;;;;6171177;23;20051;-90
2022/11/26 06:43:24;;;;;;;2.92;0.80;;;;;;;;;;6170527;23;20011;-89
2022/11/26 06:45:51;;;;;;;2.10;0.70;;;;;;;;;;6170662;23;20016;-89
2022/11/26 06:48:17;;;;;;;2.53;0.80;;;;;;;;;;6171316;23;20233;-90
2022/11/26 06:50:43;;;;;;;2.65;0.55;;;;;;;;;;6169784;23;20020;-89
2022/11/26 06:53:09;;;;;;;3.88;0.68;;;;;;;;;;6172135;23;20342;-90
2022/11/26 06:55:36;;;;;;;3.95;0.60;;;;;;;;;;6171902;23;20356;-91
2022/11/26 06:58:02;;;;;;;2.70;0.80;;;;;;;;;;6173329;23;20080;-91
2022/11/26 07:00:28;;;;;;;2.65;1.02;;;;;;;;;;6172407;23;20001;-90
2022/11/26 07:02:55;;;;;;;2.25;0.80;;;;;;;;;;6171238;23;20005;-90
2022/11/26 07:05:21;;;;;;;1.13;0.60;;;;;;;;;;6172151;23;20008;-91
2022/11/26 07:07:47;;;;;;;2.60;0.80;;;;;;;;;;6171267;23;20004;-90
2022/11/26 07:10:13;;;;;;;4.03;1.27;;;;;;;;;;6175751;23;20430;-90
2022/11/26 07:12:39;;;;;;;1.60;0.68;;;;;;;;;;6174193;23;20009;-90
2022/11/26 07:15:06;;;;;;;2.47;0.80;;;;;;;;;;6174933;23;20012;-90
2022/11/26 07:17:32;;;;;;;3.08;1.55;;;;;;;;;;6175776;23;20091;-91
2022/11/26 07:19:58;;;;;;;3.03;0.68;;;;;;;;;;6174795;23;20008;-90
2022/11/26 07:22:24;;;;;;;1.10;0.60;;;;;;;;;;6175563;23;20047;-90
2022/11/26 07:24:50;;;;;;;1.80;0.90;;;;;;;;;;6173519;23;20019;-90
2022/11/26 07:27:17;;;;;;;3.78;0.80;;;;;;;;;;6175484;23;20004;-90
2022/11/26 07:29:43;;;;;;;8.60;0.90;;;;;;;;;;6175305;23;20028;-91
2022/11/26 07:32:09;;;;;;;4.75;1.10;;;;;;;;;;6173152;23;20083;-91
2022/11/26 07:34:35;;;;;;;2.13;1.30;;;;;;;;;;6175158;23;20009;-91
2022/11/26 07:37:01;;;;;;;2.75;1.05;;;;;;;;;;6174685;23;20059;-91
2022/11/26 07:39:28;;;;;;;0.70;0.60;;;;;;;;;;6176296;23;20102;-92
2022/11/26 07:41:54;;;;;;;1.48;0.63;;;;;;;;;;6176503;23;20090;-90
2022/11/26 07:44:20;;;;;;;1.67;0.55;;;;;;;;;;6174753;23;20004;-92
2022/11/26 07:46:46;;;;;;;0.40;0.40;;;;;;;;;;6174517;23;20095;-91
2022/11/26 07:49:13;;;;;;;5.40;1.08;;;;;;;;;;6174669;23;20191;-92
2022/11/26 07:51:39;;;;;;;2.78;0.93;;;;;;;;;;6175777;23;20510;-92
2022/11/26 07:54:07;;;;;;;3.72;1.95;;;;;;;;;;6175240;23;20506;-92
2022/11/26 07:56:33;;;;;;;2.70;1.40;;;;;;;;;;6174443;23;20473;-93
2022/11/26 07:59:00;;;;;;;6.47;1.67;;;;;;;;;;6176066;23;20056;-92
2022/11/26 08:01:28;;;;;;;2.78;1.30;;;;;;;;;;6173926;23;20008;-91
2022/11/26 08:03:55;;;;;;;5.53;1.25;;;;;;;;;;6175988;23;20004;-92
2022/11/26 08:06:23;;;;;;;3.25;1.50;;;;;;;;;;6175993;23;20014;-92
2022/11/26 08:08:49;;;;;;;2.58;1.20;;;;;;;;;;6175832;23;20108;-92
2022/11/26 08:11:17;;;;;;;2.03;1.10;;;;;;;;;;6175516;23;20732;-91
2022/11/26 08:13:44;;;;;;;1.80;1.23;;;;;;;;;;6175172;23;20425;-90
2022/11/26 08:16:10;;;;;;;3.83;1.40;;;;;;;;;;6174303;23;20012;-92
2022/11/26 08:18:37;;;;;;;5.43;1.40;;;;;;;;;;6175307;23;20035;-93
2022/11/26 08:21:03;;;;;;;2.10;1.05;;;;;;;;;;6175091;23;20091;-92
2022/11/26 08:23:30;;;;;;;3.97;0.80;;;;;;;;;;6175269;23;20004;-92
2022/11/26 08:25:56;;;;;;;1.77;1.10;;;;;;;;;;6173611;23;20008;-92
2022/11/26 08:28:22;;;;;;;2.78;0.80;;;;;;;;;;6175792;23;20009;-92
2022/11/26 08:30:48;;;;;;;2.88;0.88;;;;;;;;;;6172397;23;20080;-90
2022/11/26 08:33:18;;;;;;;6.72;0.90;;;;;;;;;;6175428;23;20668;-89
2022/11/26 08:35:44;;;;;;;3.13;1.02;;;;;;;;;;6172246;23;20342;-89
2022/11/26 08:38:10;;;;;;;2.90;1.02;;;;;;;;;;6172506;23;20224;-90
2022/11/26 08:40:36;;;;;;;3.70;1.05;;;;;;;;;;6170207;23;20008;-89
2022/11/26 08:43:08;;;;;;;3.78;1.45;;;;;;;;;;6174545;23;20084;-89
2022/11/26 08:45:34;;;;;;;13.85;2.13;;;;;;;;;;6174083;23;20000;-89
2022/11/26 08:48:00;;;;;;;5.53;1.65;;;;;;;;;;6174087;23;20008;-88
2022/11/26 08:50:26;;;;;;;4.65;1.80;;;;;;;;;;6173797;23;20063;-89
2022/11/26 08:52:53;;;;;;;6.85;2.30;;;;;;;;;;6174570;23;20009;-89
2022/11/26 08:55:19;;;;;;;4.70;2.13;;;;;;;;;;6199562;23;20050;-88
2022/11/26 08:57:46;;;;;;;4.22;1.98;;;;;;;;;;6173041;23;20019;-89
2022/11/26 09:00:15;;;;;;;3.28;1.90;;;;;;;;;;6174390;23;20603;-89
2022/11/26 09:02:42;;;;;;;3.00;1.83;;;;;;;;;;6172468;23;20004;-89
2022/11/26 09:05:08;;;;;;;5.30;1.60;;;;;;;;;;6174976;23;20035;-90
2022/11/26 09:07:34;;;;;;;2.53;1.33;;;;;;;;;;6174935;23;20036;-90
2022/11/26 09:10:04;;;;;;;3.95;1.30;;;;;;;;;;6174638;23;20012;-86
2022/11/26 09:12:30;;;;;;;2.58;1.30;;;;;;;;;;6173230;23;20439;-86
2022/11/26 09:14:56;;;;;;;5.78;1.40;;;;;;;;;;6171401;23;20395;-86
2022/11/26 09:17:22;;;;;;;1.88;1.20;;;;;;;;;;6172348;23;20510;-87
2022/11/26 09:19:48;;;;;;;3.92;1.10;;;;;;;;;;6172759;23;20516;-87
2022/11/26 09:22:17;;;;;;;2.67;1.20;;;;;;;;;;6173509;23;20481;-87
2022/11/26 09:24:43;;;;;;;2.20;1.40;;;;;;;;;;6172704;23;20040;-87
2022/11/26 09:27:10;;;;;;;10.10;2.83;;;;;;;;;;6174396;23;20005;-89
2022/11/26 09:29:37;;;;;;;2.20;1.50;;;;;;;;;;6174147;23;20008;-91
2022/11/26 09:32:03;;;;;;;4.57;1.75;;;;;;;;;;6174287;23;20012;-92
2022/11/26 09:34:29;;;;;;;5.65;1.52;;;;;;;;;;6176519;23;20320;-91
2022/11/26 09:36:56;;;;;;;3.97;1.27;;;;;;;;;;6175835;23;20009;-90
2022/11/26 09:39:22;;;;;;;2.70;1.10;;;;;;;;;;6176752;23;20004;-91
2022/11/26 09:42:07;;;;;;;2.83;1.23;;;;;;;;;;6175484;23;20099;-92
2022/11/26 09:44:33;;;;;;;2.72;1.02;;;;;;;;;;6176266;23;20155;-92
2022/11/26 09:47:19;;;;;;;4.30;1.45;;;;;;;;;;6176170;23;20247;-92
2022/11/26 09:49:51;;;;;;;3.63;1.33;;;;;;;;;;6156052;23;20056;-92
2022/11/26 09:52:18;;;;;;;3.47;1.50;;;;;;;;;;6177170;23;20354;-92
2022/11/26 09:54:45;;;;;;;3.08;1.13;;;;;;;;;;6176798;23;20356;-94
2022/11/26 09:57:30;;;;;;;2.28;1.15;;;;;;;;;;6175446;23;20004;-93
2022/11/26 09:59:56;;;;;;;2.40;1.38;;;;;;;;;;6177721;23;20000;-93
2022/11/26 10:02:24;;;;;;;2.28;1.10;;;;;;;;;;6176363;23;20012;-91
2022/11/26 10:04:51;;;;;;;4.47;1.23;;;;;;;;;;6174724;23;20664;-93
2022/11/26 10:07:20;;;;;;;2.95;1.27;;;;;;;;;;6176791;23;20152;-92
2022/11/26 10:09:56;;;;;;;6.03;1.23;;;;;;;;;;6175817;23;20027;-91
2022/11/26 10:12:42;;;;;;;1.23;0.60;;;;;;;;;;6176879;23;20001;-92
2022/11/26 10:15:13;;;;;;;2.58;0.70;;;;;;;;;;6176979;23;20210;-93
2022/11/26 10:17:46;;;;;;;14.60;1.70;;;;;;;;;;6175273;23;20066;-91
2022/11/26 10:20:27;;;;;;;2.67;0.82;;;;;;;;;;6178263;23;20055;-91
2022/11/26 10:23:00;;;;;;;1.75;0.90;;;;;;;;;;6176653;23;20016;-91
2022/11/26 10:25:28;;;;;;;2.22;0.95;;;;;;;;;;6176274;23;20055;-93
2022/11/26 10:27:55;;;;;;;1.77;0.77;;;;;;;;;;6177987;23;20118;-94
2022/11/26 10:30:24;;;;;;;2.60;0.90;;;;;;;;;;6176523;23;20184;-93
2022/11/26 10:32:51;;;;;;;3.33;1.67;;;;;;;;;;6178173;23;20005;-91
2022/11/26 10:35:27;;;;;;;2.83;1.48;;;;;;;;;;6175252;23;20031;-93
2022/11/26 10:37:54;;;;;;;3.78;1.20;;;;;;;;;;6178236;23;20406;-93
2022/11/26 10:40:26;;;;;;;6.57;1.23;;;;;;;;;;6178724;23;20095;-92
2022/11/26 10:43:07;;;;;;;5.43;1.20;;;;;;;;;;6177945;23;20188;-91
2022/11/26 10:45:39;;;;;;;3.05;1.20;;;;;;;;;;6176201;23;20446;-92
2022/11/26 10:48:18;;;;;;;2.85;1.48;;;;;;;;;;6178542;23;20024;-93
2022/11/26 10:50:55;;;;;;;4.40;1.38;;;;;;;;;;6177135;23;20029;-91
2022/11/26 10:53:22;;;;;;;4.70;1.30;;;;;;;;;;6176489;23;20070;-91
2022/11/26 10:55:48;;;;;;;2.17;1.30;;;;;;;;;;6175939;23;20011;-89
2022/11/26 10:58:16;;;;;;;2.60;1.30;;;;;;;;;;6177350;23;20095;-90
2022/11/26 11:00:45;;;;;;;1.65;1.30;;;;;;;;;;6175085;23;20008;-91
2022/11/26 11:03:16;;;;;;;5.82;1.42;;;;;;;;;;6176890;23;20415;-92
2022/11/26 11:05:43;;;;;;;4.35;1.30;;;;;;;;;;6175070;23;20091;-91
2022/11/26 11:08:33;;;;;;;5.78;1.30;;;;;;;;;;6179318;23;20415;-92
2022/11/26 11:11:00;;;;;;;2.88;1.20;;;;;;;;;;6161725;23;20469;-93
2022/11/26 11:13:46;;;;;;;2.00;1.00;;;;;;;;;;6177150;23;20082;-92
2022/11/26 11:16:12;;;;;;;2.25;1.33;;;;;;;;;;6175319;23;20363;-93
2022/11/26 11:18:48;;;;;;;3.75;1.10;;;;;;;;;;6174792;23;20431;-93
2022/11/26 11:21:16;;;;;;;3.42;1.10;;;;;;;;;;6176362;23;20009;-93
2022/11/26 11:23:42;;;;;;;3.00;1.50;;;;;;;;;;6175134;23;20028;-92
2022/11/26 11:26:12;;;;;;;2.22;1.30;;;;;;;;;;6176168;23;20008;-93
2022/11/26 11:28:41;;;;;;;5.45;1.58;;;;;;;;;;6174667;23;20004;-93
2022/11/26 11:31:10;;;;;;;4.22;1.80;;;;;;;;;;6173695;23;20016;-92
2022/11/26 11:33:37;;;;;;;4.85;1.63;;;;;;;;;;6175362;23;20113;-93
2022/11/26 11:36:16;;;;;;;6.57;2.13;;;;;;;;;;6175784;23;20008;-92
2022/11/26 11:38:47;;;;;;;3.13;2.00;;;;;;;;;;6176053;23;20313;-94
2022/11/26 11:41:37;;;;;;;3.90;2.33;;;;;;;;;;6177007;23;20039;-92
2022/11/26 11:44:05;;;;;;;4.47;2.92;;;;;;;;;;6163953;23;20008;-93
2022/11/26 11:46:42;;;;;;;4.55;2.55;;;;;;;;;;6177768;23;20395;-93
2022/11/26 11:49:28;;;;;;;6.47;2.92;;;;;;;;;;6178450;23;20036;-91
2022/11/26 11:52:18;;;;;;;4.88;2.65;;;;;;;;;;6177377;23;20005;-90
2022/11/26 11:54:44;;;;;;;3.33;1.58;;;;;;;;;;6133971;23;20027;-94
2022/11/26 11:57:24;;;;;;;4.72;1.30;;;;;;;;;;6178135;23;20439;-91
2022/11/26 12:00:14;;;;;;;2.70;1.27;;;;;;;;;;6177917;23;20083;-90
2022/11/26 12:02:52;;;;;;;2.38;1.55;;;;;;;;;;6177709;23;20506;-90
2022/11/26 12:05:37;;;;;;;4.90;1.80;;;;;;;;;;6176310;23;20015;-91
2022/11/26 12:08:22;;;;;;;4.28;1.90;;;;;;;;;;6177812;23;20044;-90
2022/11/26 12:11:07;;;;;;;3.45;2.35;;;;;;;;;;6177060;23;20252;-91
2022/11/26 12:13:39;;;;;;;2.58;1.60;;;;;;;;;;6177909;23;20008;-91
2022/11/26 12:16:08;;;;;;;3.67;2.28;;;;;;;;;;6175142;23;20379;-91
2022/11/26 12:18:40;;;;;;;6.35;1.98;;;;;;;;;;6174084;23;20016;-92
2022/11/26 12:21:12;;;;;;;3.55;1.90;;;;;;;;;;6176595;23;20036;-92
2022/11/26 12:23:44;;;;;;;4.65;1.83;;;;;;;;;;6175616;23;20012;-91
2022/11/26 12:26:13;;;;;;;4.00;1.88;;;;;;;;;;6175269;23;20091;-91
2022/11/26 12:28:52;;;;;;;2.88;2.08;;;;;;;;;;6174737;23;20092;-90
2022/11/26 12:31:38;;;;;;;5.25;2.22;;;;;;;;;;6178178;23;20099;-92
2022/11/26 12:34:11;;;;;;;6.88;2.60;;;;;;;;;;6177199;23;20402;-92
2022/11/26 12:36:54;;;;;;;4.00;2.50;;;;;;;;;;6176223;23;20004;-92
2022/11/26 12:39:25;;;;;;;5.82;3.10;;;;;;;;;;6175556;23;20032;-92
2022/11/26 12:41:55;;;;;;;6.82;3.17;;;;;;;;;;6176956;23;20008;-93
2022/11/26 12:44:30;;;;;;;4.72;3.15;;;;;;;;;;6177613;23;20401;-92
2022/11/26 12:47:22;;;;;;;5.82;3.28;;;;;;;;;;6171625;23;20021;-93
2022/11/26 12:49:59;;;;;;;5.07;3.10;;;;;;;;;;6149217;23;20463;-93
2022/11/26 12:52:34;;;;;;;9.20;3.50;;;;;;;;;;6170072;23;20011;-91
2022/11/26 12:55:10;;;;;;;6.88;3.00;;;;;;;;;;6171076;23;20099;-91
2022/11/26 12:57:38;;;;;;;4.63;3.85;;;;;;;;;;6170211;23;20461;-91
2022/11/26 13:00:11;;;;;;;7.28;5.28;;;;;;;;;;6170795;23;20017;-91
2022/11/26 13:02:40;;;;;;;9.63;5.75;;;;;;;;;;6167606;23;20005;-91
2022/11/26 13:05:06;;;;;;;7.38;5.18;;;;;;;;;;6169590;23;20529;-91
2022/11/26 13:07:39;;;;;;;8.35;4.90;;;;;;;;;;6170452;23;20120;-91
2022/11/26 13:10:17;;;;;;;5.75;3.58;;;;;;;;;;6169949;23;20048;-90
2022/11/26 13:12:45;;;;;;;6.53;3.15;;;;;;;;;;6170117;23;20055;-91
2022/11/26 13:15:25;;;;;;;4.55;2.30;;;;;;;;;;6170270;23;20013;-89
2022/11/26 13:17:51;;;;;;;4.80;2.00;;;;;;;;;;6168766;23;20515;-90
2022/11/26 13:20:20;;;;;;;3.60;1.90;;;;;;;;;;6170273;23;20009;-91
2022/11/26 13:22:57;;;;;;;4.47;1.23;;;;;;;;;;6170369;23;20031;-91
2022/11/26 13:25:30;;;;;;;5.18;1.25;;;;;;;;;;6169707;23;20075;-91
2022/11/26 13:27:56;;;;;;;3.50;1.40;;;;;;;;;;6170921;23;20020;-92
2022/11/26 13:30:31;;;;;;;4.75;1.30;;;;;;;;;;6171768;23;20027;-92
2022/11/26 13:33:04;;;;;;;5.22;1.50;;;;;;;;;;6170728;23;20120;-91
2022/11/26 13:35:59;;;;;;;4.60;1.10;;;;;;;;;;6171160;23;20012;-91
2022/11/26 13:38:31;;;;;;;3.53;1.00;;;;;;;;;;6172059;23;20147;-91
2022/11/26 13:41:07;;;;;;;1.15;0.70;;;;;;;;;;6171385;23;20271;-91
2022/11/26 13:43:52;;;;;;;4.57;0.80;;;;;;;;;;6169873;23;20015;-91
2022/11/26 13:46:18;;;;;;;2.55;0.65;;;;;;;;;;6172044;23;20044;-91
2022/11/26 13:48:44;;;;;;;8.30;1.10;;;;;;;;;;6174909;23;20016;-91
2022/11/26 13:51:19;;;;;;;7.15;1.00;;;;;;;;;;6174363;23;20340;-91
2022/11/26 13:53:49;;;;;;;6.47;1.08;;;;;;;;;;6174944;23;20504;-91
2022/11/26 13:56:20;;;;;;;3.92;1.40;;;;;;;;;;6150283;23;20058;-91
2022/11/26 13:58:53;;;;;;;3.33;1.47;;;;;;;;;;6173646;23;20011;-92
2022/11/26 14:01:41;;;;;;;5.18;2.47;;;;;;;;;;6175431;23;20043;-91
2022/11/26 14:04:12;;;;;;;5.13;2.13;;;;;;;;;;6172315;23;20307;-92
2022/11/26 14:06:39;;;;;;;5.80;1.42;;;;;;;;;;6174538;23;20004;-91
2022/11/26 14:09:05;;;;;;;6.68;1.20;;;;;;;;;;6173504;23;20486;-91
2022/11/26 14:11:40;;;;;;;7.07;1.45;;;;;;;;;;6175804;23;20285;-91
2022/11/26 14:14:25;;;;;;;2.55;1.00;;;;;;;;;;6175314;23;20470;-90
2022/11/26 14:17:01;;;;;;;2.78;1.35;;;;;;;;;;6172622;23;20284;-91
2022/11/26 14:19:39;;;;;;;5.97;1.00;;;;;;;;;;6200529;23;20079;-90
2022/11/26 14:22:07;;;;;;;4.80;1.13;;;;;;;;;;6173725;23;20410;-89
2022/11/26 14:24:56;;;;;;;3.63;1.23;;;;;;;;;;6172574;23;20007;-90
2022/11/26 14:27:33;;;;;;;7.00;1.27;;;;;;;;;;6160926;23;20012;-88
2022/11/26 14:30:08;;;;;;;7.07;1.73;;;;;;;;;;6170326;23;20021;-88
2022/11/26 14:32:47;;;;;;;8.15;2.30;;;;;;;;;;6173156;23;20039;-89
2022/11/26 14:35:26;;;;;;;8.90;2.55;;;;;;;;;;6179360;23;20019;-88
2022/11/26 14:37:56;;;;;;;4.55;1.75;;;;;;;;;;6172934;23;20051;-87
2022/11/26 14:40:24;;;;;;;7.00;2.22;;;;;;;;;;6168766;23;20354;-86
2022/11/26 14:43:05;;;;;;;8.80;2.38;;;;;;;;;;6170296;23;19996;-91
2022/11/26 14:45:32;;;;;;;8.45;2.38;;;;;;;;;;6172520;23;20008;-90
2022/11/26 14:47:58;;;;;;;12.07;2.95;;;;;;;;;;6094294;23;1320280;-87
2022/11/26 14:50:25;;;;;;;14.48;3.88;;;;;;;;;;6164352;23;20035;-87
2022/11/26 14:52:55;;;;;;;12.25;5.63;;;;;;;;;;6167064;23;20107;-89
2022/11/26 14:55:23;;;;;;;19.90;7.43;;;;;;;;;;6165677;23;20009;-85
2022/11/26 14:58:08;;;;;;;13.07;6.65;;;;;;;;;;6166389;23;20009;-89